Avondale, CO

10:29 AM MDT on September 20, 2014 (GMT -0600)
Pueblo Memorial | Change Station
CLOSE
Current Station
Airport
Location: Pueblo,
Elevation: 4721 ft
Nearby Weather Stations

Elev 4721 ft 38.29 °N, 104.50 °W | Updated 36 minutes ago

Clear
Clear
77 °F
Feels Like 77 °F
N
4
Wind Variable Wind from SW

Today
High -- | Low -- °F
--% Chance of Precip.
Yesterday
High -- | Low -- °F
Precip. -- in
6:43 AM 6:57 PM
Waning Crescent, 11% visible
Pressure 29.99 in
Visibility 10.0 miles
Clouds Clear
Dew Point 47 °F
Humidity 34%
Rainfall 0.00 in
Snow Depth 0 in , 0 in , 0 in
UV 4 out of 12
Pollen 6.00 out of 12
Air Quality Not available.
Flu Activity Not available.
METAR KPUB 201553Z 23003KT 10SM CLR 25/08 A3017 RMK AO2 SLP155 T02500083

More Conditions Fewer Conditions

Pressure 29.99 in
Visibility 10.0 miles
Clouds Clear
Dew Point 47 °F
Humidity 34%
Rainfall 0.00 in
Snow Depth 0 in , 0 in , 0 in
UV 4 out of 12
Pollen 6.00 out of 12
Air Quality Not available.
Flu Activity Not available.
METAR KPUB 201553Z 23003KT 10SM CLR 25/08 A3017 RMK AO2 SLP155 T02500083

More Conditions Fewer Conditions

10-Day Weather Forecast

Almanac

Astronomy

Sep. 20, 2014 Rise Set
Actual Time 6:43 AM MDT 6:57 PM MDT
Civil Twilight 6:17 AM MDT 7:23 PM MDT
Nautical Twilight 5:46 AM MDT 7:54 PM MDT
Astronomical Twilight 5:15 AM MDT 8:26 PM MDT
Moon 3:27 AM MDT 5:00 PM MDT
Length of Visible Light 13h 06m
Length of Day
12h 13m
Tomorrow will be 2m 26s shorter.
Waning Crescent, 11% of the Moon is Illuminated
Today
Waning Crescent
Sep 24
New
Oct 1
First Quarter
Oct 8
Full
Oct 15
Last Quarter

Today's Extremes

State Highs State Lows

Community

WunderPhotos

Upload Photos

1,754,891 photos uploaded!

Nearby

Snow Depth

Station Depth Elevation
Middle Fork Camp 0 in 9000 ft
Jones Pass 0 in 10400 ft
Schofield Pass 0 in 10700 ft
Mccoy Park 9 in 9480 ft
Buckskin Joe 0 in 11150 ft

Earthquake Activity

City Distance Mag. Time & Date
No recent earthquake activity has been reported nearby.
Minimum magnitude displayed is 2.5.

Coastal Water Temperatures

Place Temperature
No Stations Reporting

Nearby Weather Stations